Time;durP1;ratioP1;P1;durP2;ratioP2;P2;SDS_P1;SDS_P2;PMS_P1;PMS_P2;Temp;Humidity;BMP_temperature;BMP_pressure;BME280_temperature;BME280_humidity;BME280_pressure;Samples;Min_cycle;Max_cycle;Signal;HPM_P1;HPM_P2
2021/10/08 00:00:20;;;;;;;21.20;8.60;;;;;;;5.27;66.69;98425.42;116255;1182;67650;-65
2021/10/08 00:03:09;;;;;;;21.20;8.50;;;;;;;5.20;67.85;98423.56;116137;1182;68368;-64
2021/10/08 00:05:39;;;;;;;22.00;8.60;;;;;;;5.14;67.62;98421.39;116264;1182;59609;-72
2021/10/08 00:08:09;;;;;;;18.50;8.50;;;;;;;5.08;67.76;98422.06;116370;1181;59631;-66
2021/10/08 00:10:39;;;;;;;19.20;8.10;;;;;;;5.01;67.69;98424.11;116267;1182;70747;-66
2021/10/08 00:13:09;;;;;;;12.20;6.10;;;;;;;4.97;68.01;98426.73;116262;1180;67430;-68
2021/10/08 00:15:38;;;;;;;17.80;7.40;;;;;;;4.92;68.99;98428.83;116204;1182;69247;-67
2021/10/08 00:18:09;;;;;;;18.50;8.00;;;;;;;4.86;69.69;98426.27;116228;1182;59536;-66
2021/10/08 00:20:39;;;;;;;18.70;8.10;;;;;;;4.82;70.00;98427.70;116214;1182;59470;-66
2021/10/08 00:23:09;;;;;;;14.10;6.90;;;;;;;4.81;69.70;98432.86;116261;1182;70560;-67
2021/10/08 00:25:40;;;;;;;18.30;7.50;;;;;;;4.80;70.13;98430.73;116142;1182;68202;-69
2021/10/08 00:28:10;;;;;;;18.90;8.50;;;;;;;4.78;68.85;98427.05;116236;1176;68492;-71
2021/10/08 00:30:39;;;;;;;17.70;7.40;;;;;;;4.76;69.08;98431.50;116447;1182;59532;-67
2021/10/08 00:33:09;;;;;;;18.60;7.10;;;;;;;4.75;69.40;98433.05;116475;1181;59545;-67
2021/10/08 00:35:39;;;;;;;20.90;8.30;;;;;;;4.73;69.52;98429.43;116473;1182;71346;-64
2021/10/08 00:38:09;;;;;;;16.20;7.50;;;;;;;4.70;70.01;98431.05;116145;1182;67679;-65
2021/10/08 00:40:42;;;;;;;14.00;7.00;;;;;;;4.67;69.14;98428.73;116236;1182;69242;-65
2021/10/08 00:43:16;;;;;;;25.60;7.80;;;;;;;4.64;69.58;98436.38;116063;1177;59576;-70
2021/10/08 00:45:48;;;;;;;23.70;8.10;;;;;;;4.60;68.51;98431.80;116204;1182;59555;-67
2021/10/08 00:48:19;;;;;;;21.10;7.10;;;;;;;4.59;68.00;98434.22;116312;1182;70543;-64
2021/10/08 00:50:50;;;;;;;16.90;7.80;;;;;;;4.58;67.63;98428.65;116231;1182;67902;-68
2021/10/08 00:53:21;;;;;;;15.80;7.40;;;;;;;4.62;67.68;98435.18;116219;1181;68326;-68
2021/10/08 00:55:53;;;;;;;16.40;7.50;;;;;;;4.63;67.61;98431.52;116299;1182;59548;-70
2021/10/08 00:58:24;;;;;;;20.90;8.40;;;;;;;4.63;68.05;98431.44;116250;1182;60399;-67
2021/10/08 01:00:54;;;;;;;18.70;7.70;;;;;;;4.62;67.20;98433.92;116285;1181;71285;-71
2021/10/08 01:03:24;;;;;;;13.80;7.30;;;;;;;4.63;67.12;98428.14;116324;1182;67459;-65
2021/10/08 01:05:54;;;;;;;18.70;7.30;;;;;;;4.64;66.84;98424.06;116287;1178;69515;-67
2021/10/08 01:08:24;;;;;;;17.40;6.80;;;;;;;4.68;66.72;98420.52;116200;1180;59562;-71
2021/10/08 01:10:54;;;;;;;19.70;7.30;;;;;;;4.69;66.78;98417.95;116545;1181;59558;-71
2021/10/08 01:13:25;;;;;;;17.10;6.70;;;;;;;4.71;66.93;98417.74;116243;1182;71227;-68
2021/10/08 01:15:56;;;;;;;21.20;7.00;;;;;;;4.73;67.82;98418.84;116264;1182;68217;-68
2021/10/08 01:18:27;;;;;;;18.70;6.50;;;;;;;4.72;67.35;98418.13;116215;1181;69294;-73
2021/10/08 01:20:58;;;;;;;18.50;7.10;;;;;;;4.70;68.21;98416.71;116111;1182;59582;-66
2021/10/08 01:23:28;;;;;;;21.20;7.50;;;;;;;4.67;67.34;98411.49;116201;1182;59583;-64
2021/10/08 01:25:58;;;;;;;15.30;7.40;;;;;;;4.63;67.10;98410.27;116156;1175;72678;-69
2021/10/08 01:28:31;;;;;;;15.40;7.50;;;;;;;4.63;67.09;98409.65;116331;1181;67779;-72
2021/10/08 01:31:06;;;;;;;14.40;7.30;;;;;;;4.63;66.47;98415.29;116210;1182;68069;-63
2021/10/08 01:33:52;;;;;;;18.00;7.80;;;;;;;4.62;66.95;98405.23;116228;1182;59574;-69
2021/10/08 01:36:21;;;;;;;20.40;7.20;;;;;;;4.61;66.97;98404.14;116271;1182;59587;-69
2021/10/08 01:38:55;;;;;;;20.40;8.50;;;;;;;4.62;66.89;98404.55;116318;1182;71635;-67
2021/10/08 01:41:26;;;;;;;17.00;6.50;;;;;;;4.60;67.03;98401.62;116061;1184;66517;-65
2021/10/08 01:43:56;;;;;;;;;;;;;;;4.58;67.08;98406.00;116091;1182;68497;-66
2021/10/08 01:46:27;;;;;;;18.40;6.50;;;;;;;4.57;67.45;98403.55;116110;1182;59493;-70
2021/10/08 01:48:57;;;;;;;19.40;6.90;;;;;;;4.59;66.77;98403.66;116129;1181;59546;-70
2021/10/08 01:51:29;;;;;;;16.90;7.00;;;;;;;4.62;66.44;98407.20;116219;1182;71393;-65
2021/10/08 01:53:59;;;;;;;14.60;6.80;;;;;;;4.61;66.55;98405.08;116123;1183;67769;-68
2021/10/08 01:56:30;;;;;;;18.70;6.80;;;;;;;4.57;67.00;98404.11;116338;1182;69151;-66
2021/10/08 01:59:02;;;;;;;15.10;6.90;;;;;;;4.51;67.21;98404.77;116453;1182;59630;-67
2021/10/08 02:01:35;;;;;;;14.10;6.90;;;;;;;4.46;66.72;98404.92;116238;1182;59916;-73
2021/10/08 02:04:12;;;;;;;16.40;6.70;;;;;;;4.43;66.85;98405.68;116477;1182;70784;-63
2021/10/08 02:06:44;;;;;;;20.00;8.40;;;;;;;4.38;67.34;98406.42;116061;1182;68175;-66
2021/10/08 02:09:15;;;;;;;19.40;8.20;;;;;;;4.32;68.40;98404.48;116485;1182;68228;-67
2021/10/08 02:11:45;;;;;;;;;;;;;;;4.22;68.27;98406.48;116269;1182;59544;-69
2021/10/08 02:14:16;;;;;;;16.50;7.50;;;;;;;4.12;68.94;98404.39;116171;1182;59615;-69
2021/10/08 02:16:50;;;;;;;16.60;7.60;;;;;;;4.01;69.07;98408.82;116167;1182;71824;-68
2021/10/08 02:19:20;;;;;;;23.40;7.50;;;;;;;3.94;69.54;98407.46;116243;1183;68347;-68
2021/10/08 02:21:52;;;;;;;16.30;7.60;;;;;;;3.90;69.72;98411.34;116498;1182;68462;-69
2021/10/08 02:24:23;;;;;;;19.80;7.60;;;;;;;3.89;69.89;98409.52;116451;1183;59535;-69
2021/10/08 02:26:52;;;;;;;22.60;8.20;;;;;;;3.87;69.77;98407.08;116528;1182;59496;-68
2021/10/08 02:29:26;;;;;;;15.50;7.20;;;;;;;3.85;69.83;98404.31;116232;1183;70555;-67
2021/10/08 02:31:58;;;;;;;22.60;9.30;;;;;;;3.83;69.82;98407.83;116259;1184;67654;-67
2021/10/08 02:34:30;;;;;;;17.20;7.70;;;;;;;3.83;70.26;98409.46;116323;1182;68468;-68
2021/10/08 02:36:59;;;;;;;15.90;7.60;;;;;;;3.82;70.45;98409.38;116460;1181;59598;-70
2021/10/08 02:39:31;;;;;;;15.00;7.30;;;;;;;3.79;70.63;98414.27;116499;1181;59532;-71
2021/10/08 02:42:01;;;;;;;21.30;7.80;;;;;;;3.75;70.43;98407.38;115952;1184;71399;-66
2021/10/08 02:44:32;;;;;;;19.40;7.90;;;;;;;3.70;70.34;98408.48;116209;1183;67834;-69
2021/10/08 02:47:02;;;;;;;15.90;7.90;;;;;;;3.67;70.82;98408.14;116037;1184;69082;-69
2021/10/08 02:49:35;;;;;;;16.80;8.00;;;;;;;3.64;70.88;98409.83;116138;1182;59630;-70
2021/10/08 02:52:06;;;;;;;19.20;7.10;;;;;;;3.63;71.14;98411.86;116186;1182;59560;-71
2021/10/08 02:54:36;;;;;;;15.90;7.50;;;;;;;3.61;71.49;98411.05;116182;1182;71099;-68
2021/10/08 02:57:06;;;;;;;13.50;7.50;;;;;;;3.59;72.47;98410.30;116329;1182;68268;-70
2021/10/08 02:59:38;;;;;;;15.50;7.10;;;;;;;3.58;71.43;98415.05;116094;1184;68661;-68
2021/10/08 03:02:08;;;;;;;15.20;6.90;;;;;;;3.55;71.41;98412.52;116279;1182;59530;-69
2021/10/08 03:04:42;;;;;;;24.90;8.20;;;;;;;3.52;72.09;98413.33;116052;1182;59555;-71
2021/10/08 03:07:12;;;;;;;18.10;8.00;;;;;;;3.46;71.05;98416.45;116169;1184;70923;-71
2021/10/08 03:09:43;;;;;;;17.80;7.70;;;;;;;3.40;70.97;98417.69;116284;1182;68341;-70
2021/10/08 03:12:12;;;;;;;17.20;7.60;;;;;;;3.35;72.64;98415.98;116175;1183;69212;-70
2021/10/08 03:14:44;;;;;;;17.10;7.50;;;;;;;3.33;71.76;98419.16;116443;1182;59530;-66
2021/10/08 03:17:14;;;;;;;16.00;7.20;;;;;;;3.30;71.56;98418.42;116483;1183;59556;-67
2021/10/08 03:19:44;;;;;;;18.10;7.50;;;;;;;3.28;71.62;98414.24;116004;1182;71070;-71
2021/10/08 03:22:14;;;;;;;15.60;7.50;;;;;;;3.26;71.50;98418.61;116198;1182;67605;-73
2021/10/08 03:24:44;;;;;;;17.90;8.40;;;;;;;3.25;71.94;98415.06;116395;1182;69488;-64
2021/10/08 03:27:14;;;;;;;20.70;7.90;;;;;;;3.24;71.83;98417.94;116137;1182;59511;-64
2021/10/08 03:29:44;;;;;;;16.80;8.10;;;;;;;3.24;71.96;98420.60;116236;1182;59533;-65
2021/10/08 03:32:14;;;;;;;15.90;8.00;;;;;;;3.25;72.21;98420.92;116182;1181;69587;-67
2021/10/08 03:34:44;;;;;;;17.70;8.80;;;;;;;3.24;72.50;98421.85;116035;1182;67662;-70
2021/10/08 03:37:17;;;;;;;15.50;8.40;;;;;;;3.20;72.57;98419.83;116084;1182;70464;-65
2021/10/08 03:39:48;;;;;;;22.20;8.10;;;;;;;3.18;72.55;98426.91;115972;1182;59559;-66
2021/10/08 03:42:20;;;;;;;17.10;7.80;;;;;;;3.16;72.92;98430.31;116307;1181;59545;-70
2021/10/08 03:44:56;;;;;;;16.30;8.90;;;;;;;3.13;72.82;98424.48;116252;1182;70421;-67
2021/10/08 03:47:35;;;;;;;24.80;8.90;;;;;;;3.12;73.17;98426.50;116237;1182;68585;-68
2021/10/08 03:50:06;;;;;;;19.40;9.20;;;;;;;3.11;73.14;98426.33;116450;1182;68081;-68
2021/10/08 03:52:36;;;;;;;22.20;9.00;;;;;;;3.09;73.94;98424.11;116263;1184;59492;-66
2021/10/08 03:55:06;;;;;;;15.40;6.90;;;;;;;3.06;73.75;98424.67;116292;1182;59558;-67
2021/10/08 03:57:36;;;;;;;16.10;8.00;;;;;;;3.05;74.07;98429.73;116238;1183;71295;-64
2021/10/08 04:00:07;;;;;;;18.70;9.10;;;;;;;3.05;74.44;98433.11;116197;1182;68227;-71
2021/10/08 04:02:43;;;;;;;19.40;9.20;;;;;;;2.97;74.44;98435.33;116385;1183;69216;-67
2021/10/08 04:05:14;;;;;;;15.60;9.30;;;;;;;2.92;74.63;98431.11;116327;1182;59556;-67
2021/10/08 04:07:44;;;;;;;29.90;10.40;;;;;;;2.82;74.65;98432.56;116403;1181;59545;-67
2021/10/08 04:10:13;;;;;;;19.00;10.70;;;;;;;2.72;75.35;98430.60;116251;1182;71296;-72
2021/10/08 04:12:44;;;;;;;22.70;11.90;;;;;;;2.63;75.81;98431.83;116245;1184;68461;-69
2021/10/08 04:15:13;;;;;;;23.20;11.10;;;;;;;2.55;76.07;98429.36;116302;1183;69068;-67
2021/10/08 04:17:43;;;;;;;27.30;10.50;;;;;;;2.47;76.39;98428.89;116205;1183;59563;-67
2021/10/08 04:20:14;;;;;;;19.50;10.50;;;;;;;2.39;76.02;98432.98;116251;1184;59551;-67
2021/10/08 04:22:44;;;;;;;21.20;10.30;;;;;;;2.35;77.01;98434.69;116272;1183;71401;-72
2021/10/08 04:25:13;;;;;;;16.80;8.40;;;;;;;2.30;76.75;98435.60;116437;1182;67682;-69
2021/10/08 04:27:43;;;;;;;25.30;10.70;;;;;;;2.27;76.96;98435.31;116360;1182;69026;-64
2021/10/08 04:30:14;;;;;;;21.40;10.60;;;;;;;2.25;77.32;98433.48;116402;1182;59535;-71
2021/10/08 04:32:44;;;;;;;24.20;10.50;;;;;;;2.19;77.20;98436.34;116405;1183;59551;-69
2021/10/08 04:35:14;;;;;;;23.30;11.00;;;;;;;2.13;77.30;98431.76;116436;1182;70691;-72
2021/10/08 04:37:44;;;;;;;23.60;10.50;;;;;;;2.08;78.18;98433.70;116396;1182;67678;-73
2021/10/08 04:40:14;;;;;;;18.90;10.40;;;;;;;2.06;77.80;98438.80;116374;1182;68594;-73
2021/10/08 04:42:43;;;;;;;22.20;9.30;;;;;;;2.05;77.60;98438.33;116376;1182;59595;-68
2021/10/08 04:45:14;;;;;;;26.30;9.90;;;;;;;2.03;77.55;98445.31;116307;1182;59545;-66
2021/10/08 04:47:44;;;;;;;15.80;8.80;;;;;;;2.04;77.92;98446.59;116403;1182;70680;-67
2021/10/08 04:50:14;;;;;;;22.60;10.10;;;;;;;2.06;77.96;98444.81;116340;1182;67479;-72
2021/10/08 04:52:44;;;;;;;18.20;10.50;;;;;;;2.09;78.38;98450.81;116431;1182;69272;-68
2021/10/08 04:55:13;;;;;;;23.50;9.00;;;;;;;2.13;78.63;98449.02;116404;1182;59615;-73
2021/10/08 04:57:43;;;;;;;19.20;10.00;;;;;;;2.18;78.85;98451.85;116422;1182;59557;-74
2021/10/08 05:00:13;;;;;;;24.20;10.30;;;;;;;2.19;78.74;98451.88;116416;1181;71363;-67
2021/10/08 05:02:43;;;;;;;22.50;9.60;;;;;;;2.21;78.26;98458.62;116274;1183;67479;-72
2021/10/08 05:05:12;;;;;;;23.70;10.00;;;;;;;2.22;78.05;98458.17;116285;1182;69231;-65
2021/10/08 05:07:41;;;;;;;20.90;9.30;;;;;;;2.24;78.26;98456.10;116479;1183;59551;-71
2021/10/08 05:10:11;;;;;;;37.00;18.50;;;;;;;2.26;78.12;98457.46;116279;1183;59510;-66
2021/10/08 05:12:40;;;;;;;31.40;14.90;;;;;;;2.25;78.11;98455.66;116345;1182;72043;-65
2021/10/08 05:15:10;;;;;;;22.30;13.00;;;;;;;2.28;77.88;98456.10;116413;1183;68406;-66
2021/10/08 05:17:39;;;;;;;24.30;12.50;;;;;;;2.35;77.93;98454.84;116389;1181;69537;-71
2021/10/08 05:20:09;;;;;;;22.80;10.90;;;;;;;2.48;77.51;98456.96;116383;1182;59546;-73
2021/10/08 05:22:43;;;;;;;24.90;11.30;;;;;;;2.68;77.16;98459.20;116319;1182;59519;-70
2021/10/08 05:25:12;;;;;;;23.50;9.50;;;;;;;2.91;76.93;98457.74;116314;1182;71996;-66
2021/10/08 05:27:43;;;;;;;20.90;11.10;;;;;;;3.15;76.63;98457.36;116352;1182;68682;-71
2021/10/08 05:30:14;;;;;;;31.10;11.80;;;;;;;3.44;76.12;98460.31;116289;1181;69320;-71
2021/10/08 05:32:44;;;;;;;27.40;9.90;;;;;;;3.81;74.72;98460.38;116344;1182;59564;-67
2021/10/08 05:35:13;;;;;;;17.30;9.50;;;;;;;4.16;73.67;98459.74;116445;1182;59526;-65
2021/10/08 05:37:43;;;;;;;18.90;8.30;;;;;;;4.56;73.82;98464.05;116328;1184;71360;-71
2021/10/08 05:40:12;;;;;;;17.10;7.80;;;;;;;4.95;72.25;98460.45;116220;1182;68284;-69
2021/10/08 05:42:44;;;;;;;23.10;8.60;;;;;;;5.32;70.89;98459.12;116249;1183;69935;-68
2021/10/08 05:45:15;;;;;;;15.60;8.80;;;;;;;5.66;70.15;98458.66;116288;1183;59511;-72
2021/10/08 05:47:44;;;;;;;22.60;10.00;;;;;;;5.95;68.81;98463.10;116272;1181;59564;-69
2021/10/08 05:50:14;;;;;;;21.40;10.30;;;;;;;6.15;67.58;98462.34;116270;1183;71481;-68
2021/10/08 05:52:45;;;;;;;25.20;13.40;;;;;;;6.22;66.66;98457.18;116371;1182;67577;-67
2021/10/08 05:55:14;;;;;;;29.30;14.50;;;;;;;6.31;65.82;98459.98;116292;1179;69351;-67
2021/10/08 05:57:44;;;;;;;22.70;12.70;;;;;;;6.41;65.08;98460.56;116402;1182;59506;-71
2021/10/08 06:00:13;;;;;;;26.10;15.00;;;;;;;6.54;64.99;98460.69;116416;1178;59508;-73
2021/10/08 06:02:42;;;;;;;32.90;18.50;;;;;;;6.80;64.44;98459.10;116411;1183;70613;-66
2021/10/08 06:05:13;;;;;;;26.50;14.90;;;;;;;7.09;64.33;98463.77;116391;1182;68458;-68
2021/10/08 06:07:43;;;;;;;30.20;15.40;;;;;;;7.45;62.34;98465.77;116378;1182;69372;-71
2021/10/08 06:10:13;;;;;;;32.60;16.90;;;;;;;7.64;60.39;98466.21;116401;1182;59551;-73
2021/10/08 06:12:43;;;;;;;40.10;18.80;;;;;;;7.79;59.89;98468.64;116259;1182;59555;-69
2021/10/08 06:15:13;;;;;;;33.30;17.90;;;;;;;7.98;60.15;98466.86;116249;1183;71112;-72
2021/10/08 06:17:45;;;;;;;40.10;16.90;;;;;;;8.30;59.71;98465.75;116464;1182;68458;-71
2021/10/08 06:20:14;;;;;;;35.00;16.50;;;;;;;8.81;58.14;98462.45;116295;1184;69279;-69
2021/10/08 06:22:46;;;;;;;31.30;15.70;;;;;;;9.14;56.87;98460.66;116292;1183;59573;-70
2021/10/08 06:25:19;;;;;;;31.90;13.40;;;;;;;9.52;57.97;98456.73;116379;1182;59631;-70
2021/10/08 06:27:51;;;;;;;;;;;;;;;9.92;57.34;98455.39;116414;1182;71389;-70
2021/10/08 06:30:24;;;;;;;29.50;15.20;;;;;;;10.17;56.57;98454.81;116205;1182;69389;-67
2021/10/08 06:32:54;;;;;;;26.40;14.10;;;;;;;10.38;55.36;98456.80;116136;1184;69047;-68
2021/10/08 06:35:23;;;;;;;33.30;15.40;;;;;;;10.62;54.99;98457.30;116344;1184;59486;-67
2021/10/08 06:37:54;;;;;;;22.70;13.90;;;;;;;10.69;53.65;98459.50;116424;1182;59561;-68
2021/10/08 06:40:23;;;;;;;28.20;13.70;;;;;;;10.61;53.69;98460.23;116445;1183;71389;-66
2021/10/08 06:42:53;;;;;;;28.90;12.80;;;;;;;10.74;53.17;98458.56;116432;1183;68240;-70
2021/10/08 06:45:36;;;;;;;31.50;13.20;;;;;;;11.09;52.56;98460.59;116375;1182;69641;-68
2021/10/08 06:48:06;;;;;;;;;;;;;;;11.12;50.85;98461.80;116220;1183;59567;-67
2021/10/08 06:50:37;;;;;;;24.90;11.30;;;;;;;10.94;50.14;98461.69;116430;1182;59516;-67
2021/10/08 06:53:09;;;;;;;20.20;10.50;;;;;;;11.00;50.59;98462.39;116456;1181;71458;-72
2021/10/08 06:55:38;;;;;;;25.60;9.50;;;;;;;10.92;50.53;98464.86;116425;1182;68066;-68
2021/10/08 06:58:08;;;;;;;19.40;8.70;;;;;;;11.04;48.97;98464.87;116333;1182;68280;-71
2021/10/08 07:00:38;;;;;;;20.40;8.90;;;;;;;11.17;48.25;98467.92;116334;1182;59921;-66
2021/10/08 07:03:09;;;;;;;36.60;10.10;;;;;;;11.20;48.38;98471.75;116424;1182;59532;-72
2021/10/08 07:05:40;;;;;;;18.40;7.90;;;;;;;11.29;48.53;98471.05;116378;1183;70613;-69
2021/10/08 07:08:10;;;;;;;16.20;7.90;;;;;;;11.33;47.26;98475.67;116456;1182;67385;-71
2021/10/08 07:10:40;;;;;;;21.90;8.00;;;;;;;11.39;47.67;98474.30;116379;1184;69270;-74
2021/10/08 07:13:09;;;;;;;16.30;8.20;;;;;;;11.49;48.50;98474.47;116335;1183;59493;-69
2021/10/08 07:15:38;;;;;;;21.30;8.20;;;;;;;11.54;47.07;98474.45;116314;1181;59530;-70
2021/10/08 07:18:10;;;;;;;23.30;8.30;;;;;;;11.68;47.40;98468.36;116400;1182;70634;-68
2021/10/08 07:20:44;;;;;;;17.90;7.70;;;;;;;11.65;47.07;98469.19;116301;1182;67418;-71
2021/10/08 07:23:13;;;;;;;29.70;7.60;;;;;;;11.84;46.30;98468.66;116370;1183;68477;-66
2021/10/08 07:25:42;;;;;;;16.30;7.40;;;;;;;11.90;45.33;98469.98;116429;1182;59510;-74
2021/10/08 07:28:11;;;;;;;20.70;7.10;;;;;;;11.85;45.33;98470.30;116246;1184;59567;-72
2021/10/08 07:30:41;;;;;;;20.70;8.40;;;;;;;12.11;44.12;98470.77;116370;1174;70645;-68
2021/10/08 07:33:10;;;;;;;14.30;7.20;;;;;;;12.27;43.33;98474.12;116266;1183;68403;-70
2021/10/08 07:35:39;;;;;;;16.40;8.10;;;;;;;12.53;43.37;98475.27;116351;1182;69248;-70
2021/10/08 07:38:08;;;;;;;35.80;12.60;;;;;;;12.94;42.36;98471.70;116370;1182;59542;-71
2021/10/08 07:40:37;;;;;;;48.30;17.00;;;;;;;13.20;41.22;98471.52;116402;1182;59539;-73
2021/10/08 07:43:06;;;;;;;35.70;14.90;;;;;;;13.86;39.89;98469.43;116435;1182;70614;-70
2021/10/08 07:45:35;;;;;;;22.10;8.80;;;;;;;14.18;38.22;98469.23;116294;1182;67791;-67
2021/10/08 07:48:05;;;;;;;20.90;8.70;;;;;;;14.34;36.87;98476.67;116411;1182;69165;-71
2021/10/08 07:50:34;;;;;;;16.20;6.30;;;;;;;14.24;37.12;98469.77;116318;1183;59516;-66
2021/10/08 07:53:03;;;;;;;16.00;7.10;;;;;;;14.07;37.35;98474.14;116451;1182;59517;-69
2021/10/08 07:55:32;;;;;;;15.90;6.60;;;;;;;13.80;38.76;98471.58;116402;1183;70670;-69
2021/10/08 07:58:01;;;;;;;20.40;7.40;;;;;;;13.72;39.03;98470.27;116409;1182;68453;-68
2021/10/08 08:00:31;;;;;;;15.40;7.60;;;;;;;13.76;38.24;98467.09;116380;1181;69261;-72
2021/10/08 08:03:01;;;;;;;17.10;7.00;;;;;;;13.48;39.54;98467.36;116396;1183;59561;-69
2021/10/08 08:05:30;;;;;;;19.30;7.20;;;;;;;13.69;38.50;98472.19;116385;1182;59538;-68
2021/10/08 08:07:59;;;;;;;14.20;6.40;;;;;;;13.68;37.98;98468.02;116403;1182;70653;-70
2021/10/08 08:10:28;;;;;;;17.80;6.50;;;;;;;13.64;37.50;98466.27;116376;1183;67654;-68
2021/10/08 08:12:57;;;;;;;16.70;6.80;;;;;;;13.73;37.52;98467.54;116418;1181;68256;-72
2021/10/08 08:15:27;;;;;;;18.80;6.60;;;;;;;13.94;36.32;98467.55;116470;1177;59528;-75
2021/10/08 08:17:56;;;;;;;17.50;7.30;;;;;;;13.57;37.57;98469.13;116409;1182;59533;-70
2021/10/08 08:20:25;;;;;;;15.80;5.90;;;;;;;13.51;38.24;98468.65;116360;1183;70697;-73
2021/10/08 08:22:54;;;;;;;16.40;6.40;;;;;;;13.69;38.01;98468.66;116332;1182;68893;-69
2021/10/08 08:25:23;;;;;;;17.40;7.20;;;;;;;13.67;37.99;98471.19;116366;1182;69279;-69
2021/10/08 08:27:52;;;;;;;19.90;8.00;;;;;;;13.98;37.45;98473.02;116403;1181;59630;-69
2021/10/08 08:30:21;;;;;;;16.50;6.90;;;;;;;14.12;36.81;98470.50;116383;1184;59532;-71
2021/10/08 08:32:50;;;;;;;12.50;6.60;;;;;;;14.15;35.88;98463.34;116365;1182;71528;-70
2021/10/08 08:35:18;;;;;;;17.50;6.40;;;;;;;14.08;35.72;98464.15;116371;1184;69426;-72
2021/10/08 08:37:47;;;;;;;17.90;7.40;;;;;;;14.07;36.31;98462.02;116410;1182;69269;-67
2021/10/08 08:40:16;;;;;;;16.70;6.90;;;;;;;14.16;36.95;98459.66;116392;1183;59532;-70
2021/10/08 08:42:46;;;;;;;21.40;8.30;;;;;;;14.39;35.66;98456.55;116392;1182;59497;-66
2021/10/08 08:45:15;;;;;;;14.40;7.10;;;;;;;14.20;37.09;98453.89;116414;1182;70829;-67
2021/10/08 08:47:59;;;;;;;16.50;6.60;;;;;;;14.13;36.89;98455.41;116384;1182;70075;-69
2021/10/08 08:50:29;;;;;;;12.20;6.10;;;;;;;14.43;35.07;98453.02;116333;1184;69275;-67
2021/10/08 08:52:58;;;;;;;20.20;6.10;;;;;;;14.92;33.88;98453.19;116332;1182;59541;-69
2021/10/08 08:55:27;;;;;;;20.20;6.50;;;;;;;14.88;32.70;98456.48;116296;1182;59512;-69
2021/10/08 08:57:56;;;;;;;15.30;6.40;;;;;;;15.08;33.24;98449.02;116259;1183;72034;-72
2021/10/08 09:00:26;;;;;;;13.00;6.10;;;;;;;15.41;32.93;98449.64;116405;1183;68593;-69
2021/10/08 09:03:05;;;;;;;16.90;6.70;;;;;;;15.67;31.41;98450.23;116395;1183;69286;-71
2021/10/08 09:05:36;;;;;;;18.10;6.10;;;;;;;15.78;30.91;98453.33;116377;1182;59548;-71
2021/10/08 09:08:08;;;;;;;16.60;6.20;;;;;;;15.84;30.27;98452.14;116382;1182;59525;-70
2021/10/08 09:10:43;;;;;;;22.20;5.70;;;;;;;15.83;30.68;98453.28;116405;1181;72008;-69
2021/10/08 09:13:15;;;;;;;13.00;6.00;;;;;;;16.34;31.08;98452.38;116289;1183;68640;-71
2021/10/08 09:15:53;;;;;;;13.20;6.20;;;;;;;16.57;30.22;98446.91;116373;1182;68466;-72
2021/10/08 09:18:27;;;;;;;19.20;6.80;;;;;;;16.36;30.71;98446.73;116395;1182;59558;-69
2021/10/08 09:21:02;;;;;;;15.20;7.20;;;;;;;16.80;31.21;98447.68;116423;1183;59511;-73
2021/10/08 09:23:34;;;;;;;16.00;6.30;;;;;;;17.09;30.44;98442.88;116341;1184;71469;-69
2021/10/08 09:26:12;;;;;;;11.00;5.70;;;;;;;17.13;28.68;98440.80;116391;1184;68541;-74
2021/10/08 09:29:16;;;;;;;14.80;7.00;;;;;;;16.81;29.22;98442.58;116376;1182;68413;-71
2021/10/08 09:31:45;;;;;;;14.20;7.10;;;;;;;16.48;30.08;98439.84;116112;1185;59523;-73
2021/10/08 09:34:18;;;;;;;15.40;6.40;;;;;;;16.42;29.78;98437.64;116023;1185;59617;-74
2021/10/08 09:37:00;;;;;;;12.40;6.40;;;;;;;15.72;31.42;98438.13;116080;1186;70988;-67
2021/10/08 09:39:34;;;;;;;20.50;6.50;;;;;;;15.52;32.27;98445.79;116023;1184;67782;-69
2021/10/08 09:42:12;;;;;;;13.20;6.00;;;;;;;15.34;32.67;98441.98;116019;1186;69376;-70
2021/10/08 09:44:48;;;;;;;16.10;6.70;;;;;;;15.41;32.79;98441.45;116026;1185;59578;-72
2021/10/08 09:47:19;;;;;;;13.00;6.00;;;;;;;15.31;31.89;98434.89;116024;1185;59808;-74
2021/10/08 09:49:50;;;;;;;14.40;6.60;;;;;;;14.75;32.79;98432.27;116017;1186;71799;-73
2021/10/08 09:52:30;;;;;;;14.40;6.70;;;;;;;14.59;34.16;98434.49;116011;1185;68247;-67
2021/10/08 09:55:00;;;;;;;15.40;6.70;;;;;;;14.66;32.83;98435.55;116051;1186;68760;-68
2021/10/08 09:57:49;;;;;;;14.50;6.50;;;;;;;14.44;32.77;98436.92;116023;1185;59586;-69
2021/10/08 10:00:38;;;;;;;18.90;6.30;;;;;;;14.48;33.22;98434.25;116076;1185;59542;-71
2021/10/08 10:03:10;;;;;;;14.10;6.60;;;;;;;14.42;32.79;98439.91;116029;1186;71811;-67
2021/10/08 10:05:39;;;;;;;17.60;6.10;;;;;;;14.30;32.98;98439.20;116034;1185;67623;-74
2021/10/08 10:08:09;;;;;;;14.10;6.60;;;;;;;14.28;32.97;98440.23;116240;1184;67735;-73
2021/10/08 10:10:39;;;;;;;20.70;6.60;;;;;;;14.27;33.21;98442.48;116414;1182;59551;-69
2021/10/08 10:13:11;;;;;;;18.10;6.70;;;;;;;14.12;32.98;98442.70;116426;1183;59519;-66
2021/10/08 10:15:44;;;;;;;14.20;6.00;;;;;;;14.15;33.37;98441.21;116367;1183;71525;-68
2021/10/08 10:18:15;;;;;;;16.10;6.50;;;;;;;14.06;33.55;98438.99;116508;1182;68527;-71
2021/10/08 10:20:52;;;;;;;14.30;6.50;;;;;;;14.09;33.75;98435.48;116405;1182;69292;-66
2021/10/08 10:23:23;;;;;;;19.50;6.30;;;;;;;14.15;33.40;98432.85;116363;1184;59539;-68
2021/10/08 10:25:52;;;;;;;14.70;6.30;;;;;;;14.02;34.27;98429.61;116475;1182;59512;-67
2021/10/08 10:28:21;;;;;;;18.20;6.70;;;;;;;14.07;34.13;98424.55;116429;1174;70818;-69
2021/10/08 10:30:51;;;;;;;16.00;6.30;;;;;;;14.10;35.66;98422.48;116421;1182;68383;-70
2021/10/08 10:33:30;;;;;;;10.90;6.40;;;;;;;14.18;34.61;98419.88;116233;1184;69209;-74
2021/10/08 10:36:32;;;;;;;16.90;6.70;;;;;;;14.13;33.46;98418.35;116163;1184;59604;-76
2021/10/08 10:39:13;;;;;;;19.10;5.90;;;;;;;14.06;35.07;98422.35;116421;1182;59568;-73
2021/10/08 10:41:50;;;;;;;16.00;6.50;;;;;;;14.22;34.09;98423.18;116450;1183;72407;-74
2021/10/08 10:44:29;;;;;;;23.70;9.90;;;;;;;14.10;32.92;98421.13;116221;1184;68751;-68
2021/10/08 10:47:34;;;;;;;24.10;8.60;;;;;;;14.05;33.30;98414.75;116334;1182;68604;-72
2021/10/08 10:50:39;;;;;;;20.30;7.30;;;;;;;13.87;33.99;98415.41;116309;1182;59588;-74
2021/10/08 10:53:41;;;;;;;20.40;6.60;;;;;;;14.02;34.05;98414.66;116208;1184;59620;-74
2021/10/08 10:56:42;;;;;;;16.00;6.00;;;;;;;14.12;33.75;98414.70;116226;1184;71452;-70
2021/10/08 10:59:30;;;;;;;17.30;5.00;;;;;;;14.21;32.12;98409.14;116313;1182;68527;-76
2021/10/08 11:02:15;;;;;;;16.20;4.90;;;;;;;14.27;29.78;98406.48;116335;1182;68585;-71
2021/10/08 11:05:20;;;;;;;13.70;5.40;;;;;;;14.17;29.41;98405.80;116357;1182;59513;-73
2021/10/08 11:08:15;;;;;;;16.40;5.00;;;;;;;13.93;29.44;98400.92;116389;1184;59646;-73
2021/10/08 11:11:01;;;;;;;23.80;4.60;;;;;;;13.70;28.65;98402.10;116193;1184;71449;-70
2021/10/08 11:13:39;;;;;;;10.80;4.60;;;;;;;13.52;29.12;98400.65;116310;1182;68713;-72
2021/10/08 11:16:30;;;;;;;12.60;5.00;;;;;;;13.65;29.50;98399.45;116133;1183;67517;-75
2021/10/08 11:19:41;;;;;;;21.60;4.90;;;;;;;13.64;28.87;98387.77;116090;1182;59836;-72
2021/10/08 11:22:45;;;;;;;19.10;4.80;;;;;;;13.55;28.99;98391.58;116368;1183;59542;-71
2021/10/08 11:25:22;;;;;;;17.70;5.40;;;;;;;13.64;29.61;98390.73;116375;1182;70412;-73
2021/10/08 11:27:59;;;;;;;20.50;4.40;;;;;;;13.70;28.71;98388.11;116376;1177;69073;-73
2021/10/08 11:30:51;;;;;;;13.20;3.80;;;;;;;13.79;28.23;98388.26;116103;1183;69408;-73
2021/10/08 11:33:48;;;;;;;18.20;4.60;;;;;;;13.66;27.74;98377.79;116341;1183;59523;-72
2021/10/08 11:37:01;;;;;;;20.90;5.70;;;;;;;13.72;29.29;98380.64;116212;1184;59521;-74
2021/10/08 11:39:45;;;;;;;14.50;5.00;;;;;;;13.92;29.57;98386.48;116179;1181;71683;-73
2021/10/08 11:42:20;;;;;;;21.30;4.90;;;;;;;14.01;29.59;98386.30;116191;1182;68962;-71
2021/10/08 11:45:04;;;;;;;15.00;4.70;;;;;;;14.19;28.96;98384.44;116148;1184;69195;-71
2021/10/08 11:47:50;;;;;;;10.20;5.00;;;;;;;14.29;28.56;98390.98;116240;1184;59590;-69